メインページ
METAR-TAF:

METAR-TAF

空港 :

ピッツバーグ国際空港

ピッツバーグ, ペンシルバニア州, アメリカ合衆国

緯度: 40-30-14N, 経度: 080-15-59W, 海抜: 366m

現時点の気象観測

当レポートは49分前の10:51(UTC)に作成
西/北西の風 9kt
気温 -3°C
湿度 68%
気圧 1030 hPa
視程: 16.1km
高度3400ftの千切れ雲あり
高度25000ftの千切れ雲あり

METAR: KPIT 141051Z 29009KT 10SM BKN034 BKN250 M03/M08 A3042 RMK AO2 SLP324 T10331083

時間: 06:40 (11:40 UTC)

予報

当レポートは6分前の11:34(UTC)に作成
予報は14日の 12時(UTC)から 15日の 18時(UTC)まで有効
西/北西の風 10kt
視程: 10km
高度3500ftの千切れ雲あり
14日の 1400時(UTC)から
北西の風 7kt
視程: 10km
高度25000ftの千切れ雲あり
15日の 0900時(UTC)から
東/南東の風 12kt、最大18ktの突風を伴う
視程: 10km
高度10000ftの曇り
15日の 1400時(UTC)から
の風 12kt、最大18ktの突風を伴う
視程: 8.0km
高度1500ftの曇り
(弱い) 着氷性, 雨, 凍雨

TAF: KPIT 141134Z 1412/1518 30010KT P6SM BKN035 FM141400 31007KT P6SM BKN250 FM150900 11012G18KT P6SM OVC100 FM151400 09012G18KT 5SM -FZRAPL OVC015

4,000以上の空港の気象観測と天気予報(METAR報とTAF報)

利用可能な観測所は地図上に黄色い丸と赤い丸で示す。

丸の上にカーソルを重ねると観測所名を参照できる。

次にクリックすると気象観測と天気予報を参照できる。

マップの切り替え:黒色「×」印の緑ボタンをクリックして拡大、「-」印の緑ボタンをクリックして縮小、緑色の三角印をクリックして隣りの地図に切り替え


METAR-TAF: